sensor_id;sensor_type;location;lat;lon;timestamp;temperature;humidity
74420;DHT22;62855;50.718;-2.460;2023-07-29T00:00:07;60.44;90.00
74420;DHT22;62855;50.718;-2.460;2023-07-29T00:03:06;60.44;90.00
74420;DHT22;62855;50.718;-2.460;2023-07-29T00:06:06;60.44;90.00
74420;DHT22;62855;50.718;-2.460;2023-07-29T00:09:06;60.44;90.00
74420;DHT22;62855;50.718;-2.460;2023-07-29T00:12:06;60.26;90.00
74420;DHT22;62855;50.718;-2.460;2023-07-29T00:15:07;60.26;90.00
74420;DHT22;62855;50.718;-2.460;2023-07-29T00:18:05;60.26;90.00
74420;DHT22;62855;50.718;-2.460;2023-07-29T00:21:06;60.26;90.00
74420;DHT22;62855;50.718;-2.460;2023-07-29T00:24:06;60.26;90.00
74420;DHT22;62855;50.718;-2.460;2023-07-29T00:27:06;60.08;90.00
74420;DHT22;62855;50.718;-2.460;2023-07-29T00:30:07;60.08;90.00
74420;DHT22;62855;50.718;-2.460;2023-07-29T00:33:06;60.08;90.00
74420;DHT22;62855;50.718;-2.460;2023-07-29T00:36:06;60.08;90.00
74420;DHT22;62855;50.718;-2.460;2023-07-29T00:39:06;59.90;90.00
74420;DHT22;62855;50.718;-2.460;2023-07-29T00:42:06;59.90;90.00
74420;DHT22;62855;50.718;-2.460;2023-07-29T00:45:07;59.90;90.00
74420;DHT22;62855;50.718;-2.460;2023-07-29T00:48:06;59.90;90.00
74420;DHT22;62855;50.718;-2.460;2023-07-29T00:51:06;59.90;90.00
74420;DHT22;62855;50.718;-2.460;2023-07-29T00:54:06;59.90;90.00
74420;DHT22;62855;50.718;-2.460;2023-07-29T00:57:08;59.72;90.00
74420;DHT22;62855;50.718;-2.460;2023-07-29T01:00:07;59.72;90.00
74420;DHT22;62855;50.718;-2.460;2023-07-29T01:03:06;59.72;91.00
74420;DHT22;62855;50.718;-2.460;2023-07-29T01:06:12;59.54;91.00
74420;DHT22;62855;50.718;-2.460;2023-07-29T01:09:09;59.54;91.00
74420;DHT22;62855;50.718;-2.460;2023-07-29T01:12:11;59.54;91.00
74420;DHT22;62855;50.718;-2.460;2023-07-29T01:15:11;59.54;91.00
74420;DHT22;62855;50.718;-2.460;2023-07-29T01:18:10;59.54;91.00
74420;DHT22;62855;50.718;-2.460;2023-07-29T01:21:08;59.54;91.00
74420;DHT22;62855;50.718;-2.460;2023-07-29T01:24:06;59.54;91.00
74420;DHT22;62855;50.718;-2.460;2023-07-29T01:27:06;59.54;91.00
74420;DHT22;62855;50.718;-2.460;2023-07-29T01:30:07;59.54;91.00
74420;DHT22;62855;50.718;-2.460;2023-07-29T01:33:10;59.54;92.00
74420;DHT22;62855;50.718;-2.460;2023-07-29T01:36:10;59.54;92.00
74420;DHT22;62855;50.718;-2.460;2023-07-29T01:39:06;59.54;92.00
74420;DHT22;62855;50.718;-2.460;2023-07-29T01:42:06;59.54;92.00
74420;DHT22;62855;50.718;-2.460;2023-07-29T01:45:07;59.54;92.00
74420;DHT22;62855;50.718;-2.460;2023-07-29T01:48:07;59.36;92.00
74420;DHT22;62855;50.718;-2.460;2023-07-29T01:51:06;59.36;92.00
74420;DHT22;62855;50.718;-2.460;2023-07-29T01:54:06;59.36;92.00
74420;DHT22;62855;50.718;-2.460;2023-07-29T01:57:06;59.36;92.00
74420;DHT22;62855;50.718;-2.460;2023-07-29T02:00:30;59.36;92.00
74420;DHT22;62855;50.718;-2.460;2023-07-29T02:13:06;59.36;92.00
74420;DHT22;62855;50.718;-2.460;2023-07-29T02:19:06;59.36;92.00
74420;DHT22;62855;50.718;-2.460;2023-07-29T02:22:06;59.36;92.00
74420;DHT22;62855;50.718;-2.460;2023-07-29T02:25:06;59.36;92.00
74420;DHT22;62855;50.718;-2.460;2023-07-29T02:28:06;59.36;92.00
74420;DHT22;62855;50.718;-2.460;2023-07-29T02:31:14;59.36;92.00
74420;DHT22;62855;50.718;-2.460;2023-07-29T02:34:06;59.36;92.00
74420;DHT22;62855;50.718;-2.460;2023-07-29T02:37:06;59.36;93.00
74420;DHT22;62855;50.718;-2.460;2023-07-29T02:40:07;59.36;93.00
74420;DHT22;62855;50.718;-2.460;2023-07-29T02:43:06;59.54;93.00
74420;DHT22;62855;50.718;-2.460;2023-07-29T02:46:06;59.54;93.00
74420;DHT22;62855;50.718;-2.460;2023-07-29T02:49:06;59.54;93.00
74420;DHT22;62855;50.718;-2.460;2023-07-29T02:52:07;59.54;93.00
74420;DHT22;62855;50.718;-2.460;2023-07-29T02:55:06;59.54;93.00
74420;DHT22;62855;50.718;-2.460;2023-07-29T02:58:06;59.72;93.00
74420;DHT22;62855;50.718;-2.460;2023-07-29T03:01:06;59.72;93.00
74420;DHT22;62855;50.718;-2.460;2023-07-29T03:04:06;59.72;93.00
74420;DHT22;62855;50.718;-2.460;2023-07-29T03:07:06;59.72;93.00
74420;DHT22;62855;50.718;-2.460;2023-07-29T03:10:06;59.72;93.00
74420;DHT22;62855;50.718;-2.460;2023-07-29T03:13:06;59.72;93.00
74420;DHT22;62855;50.718;-2.460;2023-07-29T03:16:07;59.72;93.00
74420;DHT22;62855;50.718;-2.460;2023-07-29T03:19:06;59.90;93.00
74420;DHT22;62855;50.718;-2.460;2023-07-29T03:22:06;59.90;93.00
74420;DHT22;62855;50.718;-2.460;2023-07-29T03:25:06;59.90;93.00
74420;DHT22;62855;50.718;-2.460;2023-07-29T03:28:06;59.90;93.00
74420;DHT22;62855;50.718;-2.460;2023-07-29T03:31:06;59.90;93.00
74420;DHT22;62855;50.718;-2.460;2023-07-29T03:34:05;59.90;93.00
74420;DHT22;62855;50.718;-2.460;2023-07-29T03:37:06;59.90;93.00
74420;DHT22;62855;50.718;-2.460;2023-07-29T03:40:07;59.90;93.00
74420;DHT22;62855;50.718;-2.460;2023-07-29T03:43:06;59.90;93.00
74420;DHT22;62855;50.718;-2.460;2023-07-29T03:46:06;59.90;93.00
74420;DHT22;62855;50.718;-2.460;2023-07-29T03:49:06;59.90;93.00
74420;DHT22;62855;50.718;-2.460;2023-07-29T03:52:06;59.72;93.00
74420;DHT22;62855;50.718;-2.460;2023-07-29T03:55:07;59.72;93.00
74420;DHT22;62855;50.718;-2.460;2023-07-29T03:58:06;59.54;93.00
74420;DHT22;62855;50.718;-2.460;2023-07-29T04:01:06;59.54;93.00
74420;DHT22;62855;50.718;-2.460;2023-07-29T04:04:06;59.54;93.00
74420;DHT22;62855;50.718;-2.460;2023-07-29T04:07:06;59.54;93.00
74420;DHT22;62855;50.718;-2.460;2023-07-29T04:10:07;59.54;93.00
74420;DHT22;62855;50.718;-2.460;2023-07-29T04:13:06;59.54;94.00
74420;DHT22;62855;50.718;-2.460;2023-07-29T04:16:07;59.54;94.00
74420;DHT22;62855;50.718;-2.460;2023-07-29T04:19:06;59.54;94.00
74420;DHT22;62855;50.718;-2.460;2023-07-29T04:22:06;59.54;94.00
74420;DHT22;62855;50.718;-2.460;2023-07-29T04:25:06;59.54;94.00
74420;DHT22;62855;50.718;-2.460;2023-07-29T04:28:06;59.36;94.00
74420;DHT22;62855;50.718;-2.460;2023-07-29T04:31:06;59.36;94.00
74420;DHT22;62855;50.718;-2.460;2023-07-29T04:34:06;59.36;94.00
74420;DHT22;62855;50.718;-2.460;2023-07-29T04:37:06;59.18;95.00
74420;DHT22;62855;50.718;-2.460;2023-07-29T04:40:07;59.18;95.00
74420;DHT22;62855;50.718;-2.460;2023-07-29T04:43:06;59.18;95.00
74420;DHT22;62855;50.718;-2.460;2023-07-29T04:46:06;59.18;95.00
74420;DHT22;62855;50.718;-2.460;2023-07-29T04:49:06;59.00;95.00
74420;DHT22;62855;50.718;-2.460;2023-07-29T04:52:06;59.00;94.00
74420;DHT22;62855;50.718;-2.460;2023-07-29T04:55:07;59.00;94.00
74420;DHT22;62855;50.718;-2.460;2023-07-29T04:58:05;59.00;93.00
74420;DHT22;62855;50.718;-2.460;2023-07-29T05:01:06;59.18;93.00
74420;DHT22;62855;50.718;-2.460;2023-07-29T05:04:06;59.00;93.00
74420;DHT22;62855;50.718;-2.460;2023-07-29T05:07:06;59.00;92.00
74420;DHT22;62855;50.718;-2.460;2023-07-29T05:10:07;59.00;92.00
74420;DHT22;62855;50.718;-2.460;2023-07-29T05:13:07;59.00;92.00
74420;DHT22;62855;50.718;-2.460;2023-07-29T05:16:06;59.00;91.00
74420;DHT22;62855;50.718;-2.460;2023-07-29T05:19:06;59.00;91.00
74420;DHT22;62855;50.718;-2.460;2023-07-29T05:22:06;59.00;91.00
74420;DHT22;62855;50.718;-2.460;2023-07-29T05:25:07;59.00;90.00
74420;DHT22;62855;50.718;-2.460;2023-07-29T05:28:06;59.00;90.00
74420;DHT22;62855;50.718;-2.460;2023-07-29T05:31:06;59.00;90.00
74420;DHT22;62855;50.718;-2.460;2023-07-29T05:34:05;59.00;90.00
74420;DHT22;62855;50.718;-2.460;2023-07-29T05:37:06;59.00;90.00
74420;DHT22;62855;50.718;-2.460;2023-07-29T05:40:07;58.82;89.00
74420;DHT22;62855;50.718;-2.460;2023-07-29T05:43:06;58.82;89.00
74420;DHT22;62855;50.718;-2.460;2023-07-29T05:46:06;58.82;89.00
74420;DHT22;62855;50.718;-2.460;2023-07-29T05:49:06;58.64;89.00
74420;DHT22;62855;50.718;-2.460;2023-07-29T05:52:07;58.64;89.00
74420;DHT22;62855;50.718;-2.460;2023-07-29T05:55:07;58.64;89.00
74420;DHT22;62855;50.718;-2.460;2023-07-29T05:58:06;58.64;90.00
74420;DHT22;62855;50.718;-2.460;2023-07-29T06:01:06;58.64;90.00
74420;DHT22;62855;50.718;-2.460;2023-07-29T06:04:06;58.64;90.00
74420;DHT22;62855;50.718;-2.460;2023-07-29T06:07:06;58.82;90.00
74420;DHT22;62855;50.718;-2.460;2023-07-29T06:10:06;58.82;90.00
74420;DHT22;62855;50.718;-2.460;2023-07-29T06:13:06;58.82;90.00
74420;DHT22;62855;50.718;-2.460;2023-07-29T06:16:06;59.00;90.00
74420;DHT22;62855;50.718;-2.460;2023-07-29T06:19:06;59.00;90.00
74420;DHT22;62855;50.718;-2.460;2023-07-29T06:22:06;59.18;90.00
74420;DHT22;62855;50.718;-2.460;2023-07-29T06:25:07;59.18;89.00
74420;DHT22;62855;50.718;-2.460;2023-07-29T06:28:05;59.36;89.00
74420;DHT22;62855;50.718;-2.460;2023-07-29T06:31:06;59.54;88.00
74420;DHT22;62855;50.718;-2.460;2023-07-29T06:34:06;59.72;87.00
74420;DHT22;62855;50.718;-2.460;2023-07-29T06:37:06;59.72;87.00
74420;DHT22;62855;50.718;-2.460;2023-07-29T06:40:07;59.90;87.00
74420;DHT22;62855;50.718;-2.460;2023-07-29T06:43:06;60.08;86.00
74420;DHT22;62855;50.718;-2.460;2023-07-29T06:46:06;60.08;86.00
74420;DHT22;62855;50.718;-2.460;2023-07-29T06:49:06;60.26;85.00
74420;DHT22;62855;50.718;-2.460;2023-07-29T06:52:07;60.26;84.00
74420;DHT22;62855;50.718;-2.460;2023-07-29T06:55:07;60.44;83.00
74420;DHT22;62855;50.718;-2.460;2023-07-29T06:58:06;60.80;83.00
74420;DHT22;62855;50.718;-2.460;2023-07-29T07:01:05;61.16;82.00
74420;DHT22;62855;50.718;-2.460;2023-07-29T07:04:06;61.34;82.00
74420;DHT22;62855;50.718;-2.460;2023-07-29T07:07:06;61.52;81.00
74420;DHT22;62855;50.718;-2.460;2023-07-29T07:10:07;61.52;80.00
74420;DHT22;62855;50.718;-2.460;2023-07-29T07:13:06;61.34;80.00
74420;DHT22;62855;50.718;-2.460;2023-07-29T07:16:06;61.16;80.00
74420;DHT22;62855;50.718;-2.460;2023-07-29T07:19:05;61.34;80.00
74420;DHT22;62855;50.718;-2.460;2023-07-29T07:22:06;61.34;80.00
74420;DHT22;62855;50.718;-2.460;2023-07-29T07:25:07;61.52;80.00
74420;DHT22;62855;50.718;-2.460;2023-07-29T07:28:05;61.70;80.00
74420;DHT22;62855;50.718;-2.460;2023-07-29T07:31:06;61.70;80.00
74420;DHT22;62855;50.718;-2.460;2023-07-29T07:34:06;62.06;80.00
74420;DHT22;62855;50.718;-2.460;2023-07-29T07:37:06;62.24;79.00
74420;DHT22;62855;50.718;-2.460;2023-07-29T07:40:07;62.24;78.00
74420;DHT22;62855;50.718;-2.460;2023-07-29T07:43:06;62.24;77.00
74420;DHT22;62855;50.718;-2.460;2023-07-29T07:46:06;62.24;77.00
74420;DHT22;62855;50.718;-2.460;2023-07-29T07:49:06;62.42;78.00
74420;DHT22;62855;50.718;-2.460;2023-07-29T07:52:06;62.60;74.00
74420;DHT22;62855;50.718;-2.460;2023-07-29T07:55:07;62.60;74.00
74420;DHT22;62855;50.718;-2.460;2023-07-29T07:58:06;62.96;73.00
74420;DHT22;62855;50.718;-2.460;2023-07-29T08:01:08;62.96;73.00
74420;DHT22;62855;50.718;-2.460;2023-07-29T08:04:06;62.78;72.00
74420;DHT22;62855;50.718;-2.460;2023-07-29T08:07:06;62.96;72.00
74420;DHT22;62855;50.718;-2.460;2023-07-29T08:10:07;62.96;72.00
74420;DHT22;62855;50.718;-2.460;2023-07-29T08:13:06;62.96;72.00
74420;DHT22;62855;50.718;-2.460;2023-07-29T08:16:06;63.14;71.00
74420;DHT22;62855;50.718;-2.460;2023-07-29T08:19:06;63.32;71.00
74420;DHT22;62855;50.718;-2.460;2023-07-29T08:22:06;63.50;71.00
74420;DHT22;62855;50.718;-2.460;2023-07-29T08:25:06;63.50;71.00
74420;DHT22;62855;50.718;-2.460;2023-07-29T08:28:06;63.50;71.00
74420;DHT22;62855;50.718;-2.460;2023-07-29T08:31:06;63.68;71.00
74420;DHT22;62855;50.718;-2.460;2023-07-29T08:34:06;63.68;71.00
74420;DHT22;62855;50.718;-2.460;2023-07-29T08:37:06;63.50;70.00
74420;DHT22;62855;50.718;-2.460;2023-07-29T08:40:06;63.50;70.00
74420;DHT22;62855;50.718;-2.460;2023-07-29T08:43:06;63.68;71.00
74420;DHT22;62855;50.718;-2.460;2023-07-29T08:46:06;64.22;71.00
74420;DHT22;62855;50.718;-2.460;2023-07-29T08:49:06;64.22;70.00
74420;DHT22;62855;50.718;-2.460;2023-07-29T08:52:06;64.40;70.00
74420;DHT22;62855;50.718;-2.460;2023-07-29T08:55:07;64.58;68.00
74420;DHT22;62855;50.718;-2.460;2023-07-29T08:58:07;64.76;68.00
74420;DHT22;62855;50.718;-2.460;2023-07-29T09:01:06;64.76;69.00
74420;DHT22;62855;50.718;-2.460;2023-07-29T09:04:06;64.76;68.00
74420;DHT22;62855;50.718;-2.460;2023-07-29T09:07:06;64.58;69.00
74420;DHT22;62855;50.718;-2.460;2023-07-29T09:10:09;64.58;70.00
74420;DHT22;62855;50.718;-2.460;2023-07-29T09:13:07;64.76;70.00
74420;DHT22;62855;50.718;-2.460;2023-07-29T09:16:06;64.94;70.00
74420;DHT22;62855;50.718;-2.460;2023-07-29T09:19:06;64.94;69.00
74420;DHT22;62855;50.718;-2.460;2023-07-29T09:22:17;64.58;69.00
74420;DHT22;62855;50.718;-2.460;2023-07-29T09:25:07;64.40;70.00
74420;DHT22;62855;50.718;-2.460;2023-07-29T09:28:08;64.22;70.00
74420;DHT22;62855;50.718;-2.460;2023-07-29T09:31:06;64.58;71.00
74420;DHT22;62855;50.718;-2.460;2023-07-29T09:34:05;64.94;70.00
74420;DHT22;62855;50.718;-2.460;2023-07-29T09:37:06;64.94;69.00
74420;DHT22;62855;50.718;-2.460;2023-07-29T09:40:07;65.12;69.00
74420;DHT22;62855;50.718;-2.460;2023-07-29T09:43:08;65.48;68.00
74420;DHT22;62855;50.718;-2.460;2023-07-29T09:46:06;65.48;66.00
74420;DHT22;62855;50.718;-2.460;2023-07-29T09:49:07;65.30;66.00
74420;DHT22;62855;50.718;-2.460;2023-07-29T09:52:08;65.66;66.00
74420;DHT22;62855;50.718;-2.460;2023-07-29T09:55:07;66.38;66.00
74420;DHT22;62855;50.718;-2.460;2023-07-29T09:58:06;66.20;68.00
74420;DHT22;62855;50.718;-2.460;2023-07-29T10:01:06;66.02;68.00
74420;DHT22;62855;50.718;-2.460;2023-07-29T10:04:06;66.02;70.00
74420;DHT22;62855;50.718;-2.460;2023-07-29T10:07:07;66.38;70.00
74420;DHT22;62855;50.718;-2.460;2023-07-29T10:10:08;66.92;71.00
74420;DHT22;62855;50.718;-2.460;2023-07-29T10:13:06;67.10;71.00
74420;DHT22;62855;50.718;-2.460;2023-07-29T10:16:06;67.46;71.00
74420;DHT22;62855;50.718;-2.460;2023-07-29T10:19:07;67.64;70.00
74420;DHT22;62855;50.718;-2.460;2023-07-29T10:22:06;67.82;68.00
74420;DHT22;62855;50.718;-2.460;2023-07-29T10:25:09;67.64;68.00
74420;DHT22;62855;50.718;-2.460;2023-07-29T10:28:07;67.82;68.00
74420;DHT22;62855;50.718;-2.460;2023-07-29T10:31:06;67.64;67.00
74420;DHT22;62855;50.718;-2.460;2023-07-29T10:34:06;67.46;67.00
74420;DHT22;62855;50.718;-2.460;2023-07-29T10:37:07;67.28;67.00
74420;DHT22;62855;50.718;-2.460;2023-07-29T10:40:08;67.64;68.00
74420;DHT22;62855;50.718;-2.460;2023-07-29T10:43:10;68.00;69.00
74420;DHT22;62855;50.718;-2.460;2023-07-29T10:46:14;68.00;67.00
74420;DHT22;62855;50.718;-2.460;2023-07-29T10:49:06;68.00;66.00
74420;DHT22;62855;50.718;-2.460;2023-07-29T10:52:07;67.64;66.00
74420;DHT22;62855;50.718;-2.460;2023-07-29T10:58:08;67.64;67.00
74420;DHT22;62855;50.718;-2.460;2023-07-29T11:01:12;68.18;67.00
74420;DHT22;62855;50.718;-2.460;2023-07-29T11:04:22;68.54;65.00
74420;DHT22;62855;50.718;-2.460;2023-07-29T11:07:21;68.72;64.00
74420;DHT22;62855;50.718;-2.460;2023-07-29T11:10:06;68.54;62.00
74420;DHT22;62855;50.718;-2.460;2023-07-29T11:13:06;68.36;62.00
74420;DHT22;62855;50.718;-2.460;2023-07-29T11:16:06;68.00;63.00
74420;DHT22;62855;50.718;-2.460;2023-07-29T11:19:11;68.18;64.00
74420;DHT22;62855;50.718;-2.460;2023-07-29T11:22:06;68.36;64.00
74420;DHT22;62855;50.718;-2.460;2023-07-29T11:25:08;68.36;64.00
74420;DHT22;62855;50.718;-2.460;2023-07-29T11:28:06;68.36;63.00
74420;DHT22;62855;50.718;-2.460;2023-07-29T11:31:06;68.36;63.00
74420;DHT22;62855;50.718;-2.460;2023-07-29T11:34:06;68.36;63.00
74420;DHT22;62855;50.718;-2.460;2023-07-29T11:37:06;68.36;63.00
74420;DHT22;62855;50.718;-2.460;2023-07-29T11:40:07;68.36;64.00
74420;DHT22;62855;50.718;-2.460;2023-07-29T11:43:06;68.54;66.00
74420;DHT22;62855;50.718;-2.460;2023-07-29T11:46:06;68.54;65.00
74420;DHT22;62855;50.718;-2.460;2023-07-29T11:49:06;68.90;66.00
74420;DHT22;62855;50.718;-2.460;2023-07-29T11:52:08;69.08;65.00
74420;DHT22;62855;50.718;-2.460;2023-07-29T11:55:06;69.26;65.00
74420;DHT22;62855;50.718;-2.460;2023-07-29T11:58:07;69.44;65.00
74420;DHT22;62855;50.718;-2.460;2023-07-29T12:01:07;69.26;64.00
74420;DHT22;62855;50.718;-2.460;2023-07-29T12:04:06;69.08;63.00
74420;DHT22;62855;50.718;-2.460;2023-07-29T12:07:06;68.90;63.00
74420;DHT22;62855;50.718;-2.460;2023-07-29T12:10:07;68.72;65.00
74420;DHT22;62855;50.718;-2.460;2023-07-29T12:13:07;68.72;64.00
74420;DHT22;62855;50.718;-2.460;2023-07-29T12:16:06;68.72;65.00
74420;DHT22;62855;50.718;-2.460;2023-07-29T12:19:06;68.90;64.00
74420;DHT22;62855;50.718;-2.460;2023-07-29T12:22:07;68.90;63.00
74420;DHT22;62855;50.718;-2.460;2023-07-29T12:25:07;68.90;64.00
74420;DHT22;62855;50.718;-2.460;2023-07-29T12:28:06;69.26;64.00
74420;DHT22;62855;50.718;-2.460;2023-07-29T12:31:07;69.26;63.00
74420;DHT22;62855;50.718;-2.460;2023-07-29T12:34:06;69.26;63.00
74420;DHT22;62855;50.718;-2.460;2023-07-29T12:37:07;69.26;64.00
74420;DHT22;62855;50.718;-2.460;2023-07-29T12:40:07;69.26;63.00
74420;DHT22;62855;50.718;-2.460;2023-07-29T12:43:06;68.90;62.00
74420;DHT22;62855;50.718;-2.460;2023-07-29T12:46:06;68.72;63.00
74420;DHT22;62855;50.718;-2.460;2023-07-29T12:49:06;68.72;64.00
74420;DHT22;62855;50.718;-2.460;2023-07-29T12:52:07;68.72;63.00
74420;DHT22;62855;50.718;-2.460;2023-07-29T12:55:07;68.72;63.00
74420;DHT22;62855;50.718;-2.460;2023-07-29T12:58:06;68.54;63.00
74420;DHT22;62855;50.718;-2.460;2023-07-29T13:01:05;68.54;64.00
74420;DHT22;62855;50.718;-2.460;2023-07-29T13:04:06;68.54;65.00
74420;DHT22;62855;50.718;-2.460;2023-07-29T13:07:06;68.90;64.00
74420;DHT22;62855;50.718;-2.460;2023-07-29T13:10:08;68.72;63.00
74420;DHT22;62855;50.718;-2.460;2023-07-29T13:13:06;68.72;64.00
74420;DHT22;62855;50.718;-2.460;2023-07-29T13:16:06;68.72;64.00
74420;DHT22;62855;50.718;-2.460;2023-07-29T13:19:06;68.54;65.00
74420;DHT22;62855;50.718;-2.460;2023-07-29T13:22:06;68.36;66.00
74420;DHT22;62855;50.718;-2.460;2023-07-29T13:25:07;68.36;66.00
74420;DHT22;62855;50.718;-2.460;2023-07-29T13:28:06;68.36;65.00
74420;DHT22;62855;50.718;-2.460;2023-07-29T13:31:06;68.36;65.00
74420;DHT22;62855;50.718;-2.460;2023-07-29T13:34:06;68.72;65.00
74420;DHT22;62855;50.718;-2.460;2023-07-29T13:37:07;69.08;65.00
74420;DHT22;62855;50.718;-2.460;2023-07-29T13:40:07;69.26;64.00
74420;DHT22;62855;50.718;-2.460;2023-07-29T13:43:06;69.26;63.00
74420;DHT22;62855;50.718;-2.460;2023-07-29T13:46:06;69.08;63.00
74420;DHT22;62855;50.718;-2.460;2023-07-29T13:49:06;69.26;63.00
74420;DHT22;62855;50.718;-2.460;2023-07-29T13:52:06;69.26;64.00
74420;DHT22;62855;50.718;-2.460;2023-07-29T13:55:06;69.44;64.00
74420;DHT22;62855;50.718;-2.460;2023-07-29T13:58:06;69.44;63.00
74420;DHT22;62855;50.718;-2.460;2023-07-29T14:01:06;69.44;62.00
74420;DHT22;62855;50.718;-2.460;2023-07-29T14:04:06;69.26;63.00
74420;DHT22;62855;50.718;-2.460;2023-07-29T14:07:06;69.26;62.00
74420;DHT22;62855;50.718;-2.460;2023-07-29T14:10:06;69.26;62.00
74420;DHT22;62855;50.718;-2.460;2023-07-29T14:13:06;69.08;62.00
74420;DHT22;62855;50.718;-2.460;2023-07-29T14:16:06;69.08;62.00
74420;DHT22;62855;50.718;-2.460;2023-07-29T14:19:06;68.90;62.00
74420;DHT22;62855;50.718;-2.460;2023-07-29T14:22:06;69.08;62.00
74420;DHT22;62855;50.718;-2.460;2023-07-29T14:25:07;69.26;64.00
74420;DHT22;62855;50.718;-2.460;2023-07-29T14:28:06;69.26;64.00
74420;DHT22;62855;50.718;-2.460;2023-07-29T14:31:05;69.26;64.00
74420;DHT22;62855;50.718;-2.460;2023-07-29T14:34:07;69.26;63.00
74420;DHT22;62855;50.718;-2.460;2023-07-29T14:37:06;69.26;63.00
74420;DHT22;62855;50.718;-2.460;2023-07-29T14:40:07;69.08;63.00
74420;DHT22;62855;50.718;-2.460;2023-07-29T14:43:05;69.44;64.00
74420;DHT22;62855;50.718;-2.460;2023-07-29T14:46:06;69.62;64.00
74420;DHT22;62855;50.718;-2.460;2023-07-29T14:49:06;69.98;62.00
74420;DHT22;62855;50.718;-2.460;2023-07-29T14:52:06;69.80;61.00
74420;DHT22;62855;50.718;-2.460;2023-07-29T14:55:07;69.98;61.00
74420;DHT22;62855;50.718;-2.460;2023-07-29T14:58:06;69.80;60.00
74420;DHT22;62855;50.718;-2.460;2023-07-29T15:01:06;69.80;60.00
74420;DHT22;62855;50.718;-2.460;2023-07-29T15:04:06;69.98;60.00
74420;DHT22;62855;50.718;-2.460;2023-07-29T15:07:06;69.98;59.00
74420;DHT22;62855;50.718;-2.460;2023-07-29T15:10:07;69.98;58.00
74420;DHT22;62855;50.718;-2.460;2023-07-29T15:13:06;69.80;55.00
74420;DHT22;62855;50.718;-2.460;2023-07-29T15:16:06;69.80;56.00
74420;DHT22;62855;50.718;-2.460;2023-07-29T15:19:06;69.80;57.00
74420;DHT22;62855;50.718;-2.460;2023-07-29T15:22:06;69.98;58.00
74420;DHT22;62855;50.718;-2.460;2023-07-29T15:25:09;69.98;58.00
74420;DHT22;62855;50.718;-2.460;2023-07-29T15:28:06;70.16;55.00
74420;DHT22;62855;50.718;-2.460;2023-07-29T15:31:06;70.16;54.00
74420;DHT22;62855;50.718;-2.460;2023-07-29T15:34:06;70.16;54.00
74420;DHT22;62855;50.718;-2.460;2023-07-29T15:37:06;70.16;55.00
74420;DHT22;62855;50.718;-2.460;2023-07-29T15:40:07;70.16;56.00
74420;DHT22;62855;50.718;-2.460;2023-07-29T15:43:06;70.34;58.00
74420;DHT22;62855;50.718;-2.460;2023-07-29T15:46:06;70.52;57.00
74420;DHT22;62855;50.718;-2.460;2023-07-29T15:49:05;70.52;56.00
74420;DHT22;62855;50.718;-2.460;2023-07-29T15:52:07;70.52;55.00
74420;DHT22;62855;50.718;-2.460;2023-07-29T15:55:06;69.98;55.00
74420;DHT22;62855;50.718;-2.460;2023-07-29T15:58:06;69.62;59.00
74420;DHT22;62855;50.718;-2.460;2023-07-29T16:01:06;69.44;61.00
74420;DHT22;62855;50.718;-2.460;2023-07-29T16:04:06;69.08;61.00
74420;DHT22;62855;50.718;-2.460;2023-07-29T16:07:06;68.54;62.00
74420;DHT22;62855;50.718;-2.460;2023-07-29T16:10:08;68.36;63.00
74420;DHT22;62855;50.718;-2.460;2023-07-29T16:13:06;68.18;63.00
74420;DHT22;62855;50.718;-2.460;2023-07-29T16:16:06;68.18;63.00
74420;DHT22;62855;50.718;-2.460;2023-07-29T16:19:06;68.00;63.00
74420;DHT22;62855;50.718;-2.460;2023-07-29T16:22:06;67.64;63.00
74420;DHT22;62855;50.718;-2.460;2023-07-29T16:25:07;67.46;64.00
74420;DHT22;62855;50.718;-2.460;2023-07-29T16:28:06;67.46;64.00
74420;DHT22;62855;50.718;-2.460;2023-07-29T16:31:07;67.64;64.00
74420;DHT22;62855;50.718;-2.460;2023-07-29T16:34:06;67.64;64.00
74420;DHT22;62855;50.718;-2.460;2023-07-29T16:37:06;67.28;64.00
74420;DHT22;62855;50.718;-2.460;2023-07-29T16:40:07;67.28;65.00
74420;DHT22;62855;50.718;-2.460;2023-07-29T16:43:06;67.28;65.00
74420;DHT22;62855;50.718;-2.460;2023-07-29T16:46:06;67.28;65.00
74420;DHT22;62855;50.718;-2.460;2023-07-29T16:49:06;67.46;66.00
74420;DHT22;62855;50.718;-2.460;2023-07-29T16:52:06;67.64;66.00
74420;DHT22;62855;50.718;-2.460;2023-07-29T16:55:07;67.64;65.00
74420;DHT22;62855;50.718;-2.460;2023-07-29T16:58:06;67.64;65.00
74420;DHT22;62855;50.718;-2.460;2023-07-29T17:01:06;67.28;64.00
74420;DHT22;62855;50.718;-2.460;2023-07-29T17:04:06;67.28;65.00
74420;DHT22;62855;50.718;-2.460;2023-07-29T17:07:06;67.28;65.00
74420;DHT22;62855;50.718;-2.460;2023-07-29T17:10:06;67.10;65.00
74420;DHT22;62855;50.718;-2.460;2023-07-29T17:13:06;67.10;65.00
74420;DHT22;62855;50.718;-2.460;2023-07-29T17:16:06;67.10;65.00
74420;DHT22;62855;50.718;-2.460;2023-07-29T17:19:06;66.92;65.00
74420;DHT22;62855;50.718;-2.460;2023-07-29T17:22:06;66.74;65.00
74420;DHT22;62855;50.718;-2.460;2023-07-29T17:25:06;66.56;65.00
74420;DHT22;62855;50.718;-2.460;2023-07-29T17:28:06;66.56;66.00
74420;DHT22;62855;50.718;-2.460;2023-07-29T17:31:06;66.74;66.00
74420;DHT22;62855;50.718;-2.460;2023-07-29T17:34:06;66.92;64.00
74420;DHT22;62855;50.718;-2.460;2023-07-29T17:37:06;66.92;62.00
74420;DHT22;62855;50.718;-2.460;2023-07-29T17:40:06;66.92;62.00
74420;DHT22;62855;50.718;-2.460;2023-07-29T17:43:06;66.74;61.00
74420;DHT22;62855;50.718;-2.460;2023-07-29T17:46:06;66.74;61.00
74420;DHT22;62855;50.718;-2.460;2023-07-29T17:49:06;66.92;61.00
74420;DHT22;62855;50.718;-2.460;2023-07-29T17:52:07;66.92;61.00
74420;DHT22;62855;50.718;-2.460;2023-07-29T17:55:07;66.74;61.00
74420;DHT22;62855;50.718;-2.460;2023-07-29T17:58:06;66.56;61.00
74420;DHT22;62855;50.718;-2.460;2023-07-29T18:01:06;66.56;61.00
74420;DHT22;62855;50.718;-2.460;2023-07-29T18:04:06;66.38;61.00
74420;DHT22;62855;50.718;-2.460;2023-07-29T18:07:06;66.38;61.00
74420;DHT22;62855;50.718;-2.460;2023-07-29T18:10:06;66.20;61.00
74420;DHT22;62855;50.718;-2.460;2023-07-29T18:13:06;66.38;61.00
74420;DHT22;62855;50.718;-2.460;2023-07-29T18:16:05;66.56;62.00
74420;DHT22;62855;50.718;-2.460;2023-07-29T18:19:06;66.56;63.00
74420;DHT22;62855;50.718;-2.460;2023-07-29T18:22:06;66.38;64.00
74420;DHT22;62855;50.718;-2.460;2023-07-29T18:25:07;66.20;64.00
74420;DHT22;62855;50.718;-2.460;2023-07-29T18:28:06;65.84;65.00
74420;DHT22;62855;50.718;-2.460;2023-07-29T18:31:06;65.66;64.00
74420;DHT22;62855;50.718;-2.460;2023-07-29T18:34:06;65.48;64.00
74420;DHT22;62855;50.718;-2.460;2023-07-29T18:37:06;65.48;63.00
74420;DHT22;62855;50.718;-2.460;2023-07-29T18:40:07;65.30;63.00
74420;DHT22;62855;50.718;-2.460;2023-07-29T18:43:06;65.30;63.00
74420;DHT22;62855;50.718;-2.460;2023-07-29T18:46:06;65.12;63.00
74420;DHT22;62855;50.718;-2.460;2023-07-29T18:49:06;64.94;63.00
74420;DHT22;62855;50.718;-2.460;2023-07-29T18:52:07;64.94;63.00